Tropical Cyclones
[Index]
Main Index Home Page Stock Weather Photos Extreme Storms Discussion Storm News and Storm Chasing Reports Tropical Cyclones / Hurricanes / Typhoons Weather Data and Links Wild Fires / Bushfires Weather Observation Techniques Weather Picture Catalogue Tornado Pictures and Reports Stock Video Footage and DVDs for sale
Season 2012-2013 Tropical Cyclone EVAN Track Map
Season 2012-2013 Summaries: [BoM-AU] [JTWC-AU] [JTWC-SIO] [JTWC-SPAC] [JTWC-SH]
<<- Previous TC | JTWC 2012-2013 Season | Next TC ->>

click for intensity scale information  Lat/long Grid: Show Hide

 Date Labels: Show Hide

Joint Typhoon Warning Centre Cyclone Data

Name: EVAN

10 Dec 2012 18:00 UTC to 20 Dec 2012 06:00 UTC

    date/time    lat    long     hPa   cat  kts
2012-12-10 18   14.3   179.8W   1004         25          
2012-12-11 00   14.7   178.8W   1000         30          
2012-12-11 06   14.6   177.8W   1000         30          
2012-12-11 12   14.5   176.7W   1000         30          
2012-12-11 18   14.3   175.6W    996         35          
2012-12-12 00   14.2   174.6W    989    1    45          
2012-12-12 06   14.1   173.7W    989    1    45          
2012-12-12 12   14.0   173.0W    974    2    65          
2012-12-12 12   14.0   173.0W    974    2    65          
2012-12-12 18   14.0   172.1W    974    2    65          
2012-12-12 18   14.0   172.1W    974    2    65          
2012-12-13 00   14.1   171.7W    967    3    75          
2012-12-13 00   14.1   171.7W    967    3    75          
2012-12-13 00   14.1   171.7W    967    3    75          
2012-12-13 06   13.8   171.4W    963    3    80          
2012-12-13 06   13.8   171.4W    963    3    80          
2012-12-13 06   13.8   171.4W    963    3    80          
2012-12-13 12   13.7   171.6W    956    3    90          
2012-12-13 12   13.7   171.6W    956    3    90          
2012-12-13 12   13.7   171.6W    956    3    90          
2012-12-13 18   13.4   171.7W    956    3    90          
2012-12-13 18   13.4   171.7W    956    3    90          
2012-12-13 18   13.4   171.7W    956    3    90          
2012-12-14 00   13.0   171.9W    948    4   100          
2012-12-14 00   13.0   171.9W    948    4   100          
2012-12-14 00   13.0   171.9W    948    4   100          
2012-12-14 06   12.8   172.4W    948    4   100          
2012-12-14 06   12.8   172.4W    948    4   100          
2012-12-14 06   12.8   172.4W    948    4   100          
2012-12-14 12   12.6   173.1W    948    4   100          
2012-12-14 12   12.6   173.1W    948    4   100          
2012-12-14 12   12.6   173.1W    948    4   100          
2012-12-14 18   12.4   173.8W    952    3    95          
2012-12-14 18   12.4   173.8W    952    3    95          
2012-12-14 18   12.4   173.8W    952    3    95          
2012-12-15 00   12.6   174.7W    956    3    90          
2012-12-15 00   12.6   174.7W    956    3    90          
2012-12-15 00   12.6   174.7W    956    3    90          
2012-12-15 06   13.0   175.6W    956    3    90          
2012-12-15 06   13.0   175.6W    956    3    90          
2012-12-15 06   13.0   175.6W    956    3    90          
2012-12-15 12   13.3   176.7W    956    3    90          
2012-12-15 12   13.3   176.7W    956    3    90          
2012-12-15 12   13.3   176.7W    956    3    90          
2012-12-15 18   13.7   177.9W    948    4   100          
2012-12-15 18   13.7   177.9W    948    4   100          
2012-12-15 18   13.7   177.9W    948    4   100          
2012-12-16 00   14.2   178.9W    944    4   105          
2012-12-16 00   14.2   178.9W    944    4   105          
2012-12-16 00   14.2   178.9W    944    4   105          
2012-12-16 06   14.9   179.8W    944    4   105          
2012-12-16 06   14.9   179.8W    944    4   105          
2012-12-16 06   14.9   179.8W    944    4   105          
2012-12-16 12   15.7   179.3     937    4   115          
2012-12-16 12   15.7   179.3     937    4   115          
2012-12-16 12   15.7   179.3     937    4   115          
2012-12-16 18   16.3   178.3     937    4   115          
2012-12-16 18   16.3   178.3     937    4   115          
2012-12-16 18   16.3   178.3     937    4   115          
2012-12-17 00   17.2   177.6     929    5   125          
2012-12-17 00   17.2   177.6     929    5   125          
2012-12-17 00   17.2   177.6     929    5   125          
2012-12-17 06   18.0   177.0     929    5   125          
2012-12-17 06   18.0   177.0     929    5   125          
2012-12-17 06   18.0   177.0     929    5   125          
2012-12-17 12   19.0   177.0     937    4   115          
2012-12-17 12   19.0   177.0     937    4   115          
2012-12-17 12   19.0   177.0     937    4   115          
2012-12-17 18   19.7   177.0     952    3    95          
2012-12-17 18   19.7   177.0     952    3    95          
2012-12-17 18   19.7   177.0     952    3    95          
2012-12-18 00   20.3   177.3     956    3    90          
2012-12-18 00   20.3   177.3     956    3    90          
2012-12-18 00   20.3   177.3     956    3    90          
2012-12-18 06   20.9   177.3     959    3    85          
2012-12-18 06   20.9   177.3     959    3    85          
2012-12-18 06   20.9   177.3     959    3    85          
2012-12-18 12   21.5   177.3     963    3    80          
2012-12-18 12   21.5   177.3     963    3    80          
2012-12-18 12   21.5   177.3     963    3    80          
2012-12-18 18   22.2   177.4     974    2    65          
2012-12-18 18   22.2   177.4     974    2    65          
2012-12-19 00   22.8   177.8     982    2    55          
2012-12-19 00   22.8   177.8     982    2    55          
2012-12-19 06   23.2   178.1     993    1    40          
2012-12-19 12   23.7   178.5     996         35          
2012-12-19 18   24.4   178.7     996         35          
2012-12-20 00   24.6   178.7     996         35          
2012-12-20 06   24.8   179.0    1000         30          
Winds are 1-min average.

Tropical cyclone tracks developed by Michael Bath using data from the Joint Typhoon Warning Centre Best Tracks and Google Maps.


[Australian Severe Weather index] [Copyright Notice] [Email Contacts] [Search This Site] [Privacy Policy]
Document: tropical_cyclone_evan.htm Updated: 28 June 2017